sensor_id;sensor_type;location;lat;lon;timestamp;pressure;altitude;pressure_sealevel;temperature;humidity
65054;BME280;51639;47.828;35.038;2022-11-20T00:14:26;100914.28;;;6.23;78.17
65054;BME280;51639;47.828;35.038;2022-11-20T00:29:28;100890.34;;;6.18;77.40
65054;BME280;51639;47.828;35.038;2022-11-20T00:44:30;100893.31;;;6.06;78.91
65054;BME280;51639;47.828;35.038;2022-11-20T00:59:32;100877.19;;;6.09;78.30
65054;BME280;51639;47.828;35.038;2022-11-20T01:14:34;100878.69;;;6.07;77.20
65054;BME280;51639;47.828;35.038;2022-11-20T01:29:35;100853.25;;;6.04;77.74
65054;BME280;51639;47.828;35.038;2022-11-20T01:44:58;100811.72;;;6.09;77.84
65054;BME280;51639;47.828;35.038;2022-11-20T02:00:08;100818.00;;;6.24;77.29
65054;BME280;51639;47.828;35.038;2022-11-20T02:15:11;100848.69;;;6.08;78.20
65054;BME280;51639;47.828;35.038;2022-11-20T02:30:13;100787.66;;;5.90;79.13
65054;BME280;51639;47.828;35.038;2022-11-20T02:45:15;100787.78;;;6.04;79.30
65054;BME280;51639;47.828;35.038;2022-11-20T03:00:17;100766.91;;;5.97;79.74
65054;BME280;51639;47.828;35.038;2022-11-20T03:15:18;100790.72;;;5.92;79.42
65054;BME280;51639;47.828;35.038;2022-11-20T03:30:21;100854.16;;;5.86;80.63
65054;BME280;51639;47.828;35.038;2022-11-20T03:45:30;100857.16;;;6.10;80.09
65054;BME280;51639;47.828;35.038;2022-11-20T04:00:32;100907.25;;;6.15;80.75
65054;BME280;51639;47.828;35.038;2022-11-20T04:15:34;100851.88;;;6.21;79.53
65054;BME280;51639;47.828;35.038;2022-11-20T04:30:39;100824.09;;;6.17;81.03
65054;BME280;51639;47.828;35.038;2022-11-20T04:45:41;100750.72;;;5.94;83.05
65054;BME280;51639;47.828;35.038;2022-11-20T05:00:42;100782.06;;;5.75;84.21
65054;BME280;51639;47.828;35.038;2022-11-20T05:15:44;100789.75;;;5.73;84.73
65054;BME280;51639;47.828;35.038;2022-11-20T05:30:46;100836.56;;;5.62;85.13
65054;BME280;51639;47.828;35.038;2022-11-20T05:45:55;100782.75;;;5.65;85.13
65054;BME280;51639;47.828;35.038;2022-11-20T06:01:14;100797.50;;;5.78;85.52
65054;BME280;51639;47.828;35.038;2022-11-20T06:16:18;100846.72;;;5.75;86.69
65054;BME280;51639;47.828;35.038;2022-11-20T06:31:23;100798.44;;;5.90;86.26
65054;BME280;51639;47.828;35.038;2022-11-20T06:46:25;100785.34;;;5.58;87.60
65054;BME280;51639;47.828;35.038;2022-11-20T07:01:28;100799.19;;;5.27;89.07
65054;BME280;51639;47.828;35.038;2022-11-20T07:16:29;100798.50;;;5.33;89.41
65054;BME280;51639;47.828;35.038;2022-11-20T07:31:31;100774.13;;;5.23;90.58
65054;BME280;51639;47.828;35.038;2022-11-20T07:46:33;100764.03;;;5.46;91.05
65054;BME280;51639;47.828;35.038;2022-11-20T08:01:35;100768.41;;;5.58;90.48
65054;BME280;51639;47.828;35.038;2022-11-20T08:16:41;100721.56;;;5.69;91.25
65054;BME280;51639;47.828;35.038;2022-11-20T08:31:44;100637.34;;;5.72;91.41
65054;BME280;51639;47.828;35.038;2022-11-20T08:46:46;100620.91;;;5.85;91.64
65054;BME280;51639;47.828;35.038;2022-11-20T09:01:48;100612.72;;;5.74;91.71
65054;BME280;51639;47.828;35.038;2022-11-20T09:16:50;100558.75;;;5.60;95.44
65054;BME280;51639;47.828;35.038;2022-11-20T09:31:58;100527.19;;;5.60;97.76
65054;BME280;51639;47.828;35.038;2022-11-20T10:33:00;100424.75;;;5.46;100.00
65054;BME280;51639;47.828;35.038;2022-11-20T11:03:30;100431.16;;;5.27;100.00
65054;BME280;51639;47.828;35.038;2022-11-20T11:18:34;100390.06;;;5.30;100.00
65054;BME280;51639;47.828;35.038;2022-11-20T11:33:36;100389.31;;;5.37;100.00
65054;BME280;51639;47.828;35.038;2022-11-20T11:48:38;100353.97;;;5.42;100.00
65054;BME280;51639;47.828;35.038;2022-11-20T12:03:42;100337.88;;;5.56;100.00
65054;BME280;51639;47.828;35.038;2022-11-20T12:18:51;100317.09;;;5.53;100.00
65054;BME280;51639;47.828;35.038;2022-11-20T12:34:05;100279.78;;;5.55;100.00
65054;BME280;51639;47.828;35.038;2022-11-20T13:20:23;100220.25;;;5.96;100.00
65054;BME280;51639;47.828;35.038;2022-11-20T13:35:36;100220.25;;;6.03;100.00
65054;BME280;51639;47.828;35.038;2022-11-20T13:51:02;100204.09;;;6.31;100.00
65054;BME280;51639;47.828;35.038;2022-11-20T14:06:13;100202.53;;;6.44;100.00
65054;BME280;51639;47.828;35.038;2022-11-20T14:21:29;100188.28;;;6.47;100.00
65054;BME280;51639;47.828;35.038;2022-11-20T14:36:31;100159.38;;;6.44;100.00
65054;BME280;51639;47.828;35.038;2022-11-20T14:51:40;100157.44;;;6.59;100.00
65054;BME280;51639;47.828;35.038;2022-11-20T15:06:55;100128.50;;;6.67;100.00
65054;BME280;51639;47.828;35.038;2022-11-20T15:21:57;100104.22;;;6.67;100.00
65054;BME280;51639;47.828;35.038;2022-11-20T15:36:59;100096.03;;;6.88;100.00
65054;BME280;51639;47.828;35.038;2022-11-20T15:52:01;100075.09;;;7.10;100.00
65054;BME280;51639;47.828;35.038;2022-11-20T16:07:02;100082.63;;;7.40;100.00
65054;BME280;51639;47.828;35.038;2022-11-20T16:22:04;100043.97;;;7.50;100.00
65054;BME280;51639;47.828;35.038;2022-11-20T16:37:07;100009.09;;;7.66;100.00
65054;BME280;51639;47.828;35.038;2022-11-20T16:52:09;100020.34;;;7.99;100.00
65054;BME280;51639;47.828;35.038;2022-11-20T17:07:11;99989.22;;;8.21;100.00
65054;BME280;51639;47.828;35.038;2022-11-20T17:22:13;99983.31;;;8.60;100.00
65054;BME280;51639;47.828;35.038;2022-11-20T17:37:15;99961.81;;;9.03;100.00
65054;BME280;51639;47.828;35.038;2022-11-20T17:52:17;99957.22;;;9.47;100.00
65054;BME280;51639;47.828;35.038;2022-11-20T18:07:19;99949.63;;;9.81;100.00
65054;BME280;51639;47.828;35.038;2022-11-20T18:22:21;99933.22;;;10.28;100.00
65054;BME280;51639;47.828;35.038;2022-11-20T18:37:24;99916.00;;;10.71;100.00
65054;BME280;51639;47.828;35.038;2022-11-20T18:52:28;99925.75;;;11.17;100.00
65054;BME280;51639;47.828;35.038;2022-11-20T19:07:30;99908.81;;;11.42;100.00
65054;BME280;51639;47.828;35.038;2022-11-20T19:22:32;99903.09;;;11.81;100.00
65054;BME280;51639;47.828;35.038;2022-11-20T19:37:34;99884.44;;;12.09;100.00
65054;BME280;51639;47.828;35.038;2022-11-20T19:52:36;99858.78;;;12.35;100.00
65054;BME280;51639;47.828;35.038;2022-11-20T20:07:38;99850.50;;;12.51;100.00
65054;BME280;51639;47.828;35.038;2022-11-20T20:22:40;99867.69;;;12.74;100.00
65054;BME280;51639;47.828;35.038;2022-11-20T20:37:42;99877.47;;;12.84;100.00
65054;BME280;51639;47.828;35.038;2022-11-20T20:52:44;99886.50;;;12.93;100.00
65054;BME280;51639;47.828;35.038;2022-11-20T21:07:46;99880.84;;;12.88;100.00
65054;BME280;51639;47.828;35.038;2022-11-20T21:23:21;99876.75;;;13.05;100.00
65054;BME280;51639;47.828;35.038;2022-11-20T21:38:24;99878.88;;;13.36;100.00
65054;BME280;51639;47.828;35.038;2022-11-20T21:53:26;99874.19;;;13.58;100.00
65054;BME280;51639;47.828;35.038;2022-11-20T22:08:28;99862.25;;;13.86;100.00
65054;BME280;51639;47.828;35.038;2022-11-20T22:23:30;99837.75;;;13.95;100.00
65054;BME280;51639;47.828;35.038;2022-11-20T22:38:32;99833.66;;;14.00;100.00
65054;BME280;51639;47.828;35.038;2022-11-20T22:53:40;99834.72;;;13.93;100.00
65054;BME280;51639;47.828;35.038;2022-11-20T23:08:42;99817.84;;;13.86;100.00
65054;BME280;51639;47.828;35.038;2022-11-20T23:23:52;99811.75;;;13.82;100.00
65054;BME280;51639;47.828;35.038;2022-11-20T23:38:54;99827.94;;;13.76;100.00
65054;BME280;51639;47.828;35.038;2022-11-20T23:53:56;99810.03;;;13.75;100.00
